createdAt,value
2019-03-11T00:00:35.126Z,35.30
2019-03-11T00:03:03.381Z,35.00
2019-03-11T00:05:31.629Z,34.80
2019-03-11T00:07:59.934Z,34.80
2019-03-11T00:10:28.425Z,34.50
2019-03-11T00:12:56.674Z,34.30
2019-03-11T00:15:24.944Z,34.20
2019-03-11T00:17:53.195Z,34.20
2019-03-11T00:20:21.470Z,34.00
2019-03-11T00:22:49.739Z,33.70
2019-03-11T00:25:18.009Z,33.60
2019-03-11T00:27:46.257Z,33.40
2019-03-11T00:30:14.522Z,33.30
2019-03-11T00:32:42.794Z,33.10
2019-03-11T00:35:11.046Z,33.00
2019-03-11T00:37:39.550Z,32.70
2019-03-11T00:40:10.710Z,32.50
2019-03-11T00:42:38.984Z,32.40
2019-03-11T00:45:10.278Z,32.10
2019-03-11T00:47:38.792Z,32.10
2019-03-11T00:50:09.306Z,31.90
2019-03-11T00:52:37.593Z,31.70
2019-03-11T00:55:07.740Z,31.60
2019-03-11T00:57:36.029Z,31.50
2019-03-11T01:00:07.086Z,31.50
2019-03-11T01:02:35.345Z,31.20
2019-03-11T01:05:04.061Z,31.20
2019-03-11T01:07:32.338Z,31.10
2019-03-11T01:10:00.601Z,31.00
2019-03-11T01:12:28.879Z,30.70
2019-03-11T01:14:57.157Z,30.40
2019-03-11T01:17:25.649Z,30.10
2019-03-11T01:19:53.949Z,30.00
2019-03-11T01:22:22.209Z,29.90
2019-03-11T01:24:50.497Z,29.60
2019-03-11T01:27:18.753Z,29.50
2019-03-11T01:29:47.254Z,29.40
2019-03-11T01:32:15.527Z,29.20
2019-03-11T01:34:43.825Z,29.60
2019-03-11T01:37:12.346Z,29.10
2019-03-11T01:39:40.897Z,28.80
2019-03-11T01:42:09.177Z,28.80
2019-03-11T01:44:37.436Z,28.60
2019-03-11T01:47:05.715Z,28.50
2019-03-11T01:49:33.979Z,28.30
2019-03-11T01:52:02.245Z,28.20
2019-03-11T01:54:30.525Z,28.10
2019-03-11T01:56:58.807Z,28.00
2019-03-11T01:59:27.070Z,27.90
2019-03-11T02:01:55.326Z,27.80
2019-03-11T02:04:23.615Z,27.50
2019-03-11T02:06:51.878Z,27.40
2019-03-11T02:09:20.157Z,27.30
2019-03-11T02:11:48.424Z,27.30
2019-03-11T02:14:16.697Z,27.20
2019-03-11T02:16:44.963Z,27.00
2019-03-11T02:19:13.223Z,26.90
2019-03-11T02:21:41.500Z,26.90
2019-03-11T02:24:09.997Z,26.70
2019-03-11T02:26:38.277Z,26.80
2019-03-11T02:29:06.540Z,26.70
2019-03-11T02:31:34.819Z,26.60
2019-03-11T02:34:03.085Z,26.50
2019-03-11T02:36:31.619Z,26.50
2019-03-11T02:38:59.872Z,26.50
2019-03-11T02:41:28.149Z,26.50
2019-03-11T02:43:56.455Z,26.50
2019-03-11T02:46:24.791Z,26.40
2019-03-11T02:48:53.066Z,26.40
2019-03-11T02:51:21.327Z,26.30
2019-03-11T02:53:49.601Z,26.30
2019-03-11T02:56:17.863Z,26.30
2019-03-11T02:58:46.140Z,26.20
2019-03-11T03:01:16.065Z,26.20
2019-03-11T03:03:46.033Z,26.20
2019-03-11T03:06:17.703Z,26.30
2019-03-11T03:08:46.121Z,26.20
2019-03-11T03:11:14.403Z,26.20
2019-03-11T03:13:42.657Z,26.40
2019-03-11T03:16:10.954Z,26.20
2019-03-11T03:18:39.213Z,26.30
2019-03-11T03:21:07.472Z,26.20
2019-03-11T03:23:35.846Z,26.30
2019-03-11T03:26:04.086Z,26.20
2019-03-11T03:28:32.613Z,26.20
2019-03-11T03:31:00.909Z,26.20
2019-03-11T03:33:29.257Z,26.30
2019-03-11T03:35:57.579Z,26.40
2019-03-11T03:38:31.062Z,26.50
2019-03-11T03:40:55.869Z,26.40
2019-03-11T03:43:24.386Z,26.50
2019-03-11T03:45:52.886Z,26.50
2019-03-11T03:48:21.551Z,26.40
2019-03-11T03:50:49.843Z,26.40
2019-03-11T03:53:18.113Z,26.50
2019-03-11T03:55:46.369Z,26.50
2019-03-11T03:58:14.679Z,26.70
2019-03-11T04:00:42.943Z,26.70
2019-03-11T04:03:11.211Z,26.80
2019-03-11T04:05:39.501Z,26.70
2019-03-11T04:08:07.784Z,26.70
2019-03-11T04:10:36.107Z,26.80
2019-03-11T04:13:04.363Z,26.80
2019-03-11T04:15:32.634Z,26.80
2019-03-11T04:18:00.918Z,26.80
2019-03-11T04:20:29.194Z,26.90
2019-03-11T04:22:59.150Z,26.80
2019-03-11T04:25:29.065Z,27.00
2019-03-11T04:27:57.642Z,27.00
2019-03-11T04:30:27.903Z,27.10
2019-03-11T04:32:56.222Z,27.10
2019-03-11T04:35:24.503Z,27.10
2019-03-11T04:37:52.782Z,27.00
2019-03-11T04:40:21.089Z,27.10
2019-03-11T04:42:49.368Z,27.10
2019-03-11T04:45:17.977Z,27.20
2019-03-11T04:47:46.493Z,27.20
2019-03-11T04:50:19.345Z,27.30
2019-03-11T04:52:47.630Z,27.30
2019-03-11T04:55:16.423Z,27.30
2019-03-11T04:57:49.989Z,27.30
2019-03-11T05:00:20.184Z,27.40
2019-03-11T05:02:48.463Z,27.40
2019-03-11T05:05:16.741Z,27.40
2019-03-11T05:07:45.001Z,27.50
2019-03-11T05:10:16.139Z,27.50
2019-03-11T05:12:44.131Z,27.50
2019-03-11T05:15:13.457Z,27.60
2019-03-11T05:17:41.965Z,27.60
2019-03-11T05:20:12.988Z,27.70
2019-03-11T05:22:41.532Z,27.80
2019-03-11T05:25:11.364Z,27.70
2019-03-11T05:27:39.633Z,27.80
2019-03-11T05:30:15.357Z,27.70
2019-03-11T05:32:43.853Z,27.90
2019-03-11T05:35:12.133Z,27.90
2019-03-11T05:37:40.406Z,27.90
2019-03-11T05:40:14.333Z,27.90
2019-03-11T05:42:42.601Z,28.00
2019-03-11T05:45:12.644Z,28.00
2019-03-11T05:47:40.966Z,28.10
2019-03-11T05:50:13.440Z,28.00
2019-03-11T05:52:41.695Z,28.10
2019-03-11T05:55:11.085Z,28.10
2019-03-11T05:57:39.361Z,28.10
2019-03-11T06:00:10.959Z,28.20
2019-03-11T06:02:39.210Z,28.30
2019-03-11T06:05:07.551Z,28.20
2019-03-11T06:07:35.802Z,28.30
2019-03-11T06:10:06.890Z,28.30
2019-03-11T06:12:35.230Z,28.80
2019-03-11T06:15:05.241Z,28.30
2019-03-11T06:17:33.512Z,28.40
2019-03-11T06:20:09.429Z,28.40
2019-03-11T06:22:37.931Z,28.40
2019-03-11T06:25:06.222Z,28.50
2019-03-11T06:27:34.469Z,28.60
2019-03-11T06:30:02.742Z,28.60
2019-03-11T06:32:31.242Z,28.70
2019-03-11T06:34:59.489Z,28.60
2019-03-11T06:37:27.787Z,28.70
2019-03-11T06:39:57.711Z,28.70
2019-03-11T06:42:26.033Z,28.70
2019-03-11T06:44:54.300Z,28.70
2019-03-11T06:47:22.556Z,28.70
2019-03-11T06:49:50.826Z,28.70
2019-03-11T06:52:19.078Z,28.70
2019-03-11T06:54:47.596Z,28.70
2019-03-11T06:57:15.843Z,28.90
2019-03-11T06:59:44.350Z,28.80
2019-03-11T07:02:12.861Z,28.90
2019-03-11T07:04:41.124Z,28.90
2019-03-11T07:07:09.388Z,28.90
2019-03-11T07:09:37.657Z,28.90
2019-03-11T07:12:06.157Z,29.00
2019-03-11T07:14:34.481Z,28.90
2019-03-11T07:17:02.741Z,28.90
2019-03-11T07:19:30.981Z,29.00
2019-03-11T07:21:59.257Z,29.10
2019-03-11T07:24:27.554Z,29.10
2019-03-11T07:26:56.049Z,29.00
2019-03-11T07:29:24.302Z,29.10
2019-03-11T07:31:52.577Z,29.10
2019-03-11T07:34:21.073Z,29.20
2019-03-11T07:36:49.325Z,29.20
2019-03-11T07:39:17.848Z,29.20
2019-03-11T07:41:46.105Z,29.30
2019-03-11T07:44:14.428Z,29.30
2019-03-11T07:46:45.375Z,29.30
2019-03-11T07:49:12.653Z,29.40
2019-03-11T07:51:40.928Z,29.30
2019-03-11T07:54:09.168Z,29.40
2019-03-11T07:56:37.447Z,29.40
2019-03-11T07:59:05.951Z,29.40
2019-03-11T08:01:34.221Z,29.50
2019-03-11T08:04:02.468Z,29.50
2019-03-11T08:06:30.737Z,29.50
2019-03-11T08:08:59.002Z,29.60
2019-03-11T08:11:27.249Z,29.50
2019-03-11T08:13:55.522Z,29.60
2019-03-11T08:16:23.761Z,29.60
2019-03-11T08:18:52.025Z,29.70
2019-03-11T08:21:20.509Z,29.70
2019-03-11T08:23:48.778Z,29.70
2019-03-11T08:26:17.021Z,29.70
2019-03-11T08:28:45.280Z,29.70
2019-03-11T08:31:13.530Z,29.80
2019-03-11T08:33:41.792Z,29.80
2019-03-11T08:36:10.059Z,29.80
2019-03-11T08:38:38.301Z,29.90
2019-03-11T08:41:06.586Z,29.80
2019-03-11T08:43:34.838Z,29.90
2019-03-11T08:46:03.133Z,29.90
2019-03-11T08:48:31.373Z,29.90
2019-03-11T08:50:59.618Z,29.90
2019-03-11T08:53:27.881Z,30.00
2019-03-11T08:55:56.139Z,30.00
2019-03-11T08:58:24.402Z,29.90
2019-03-11T09:00:52.660Z,30.00
2019-03-11T09:03:21.166Z,30.00
2019-03-11T09:05:49.649Z,30.00
2019-03-11T09:08:17.907Z,30.10
2019-03-11T09:10:46.176Z,30.10
2019-03-11T09:13:14.416Z,30.10
2019-03-11T09:15:42.687Z,30.20
2019-03-11T09:18:10.924Z,30.20
2019-03-11T09:20:39.416Z,30.20
2019-03-11T09:23:07.680Z,30.20
2019-03-11T09:25:36.178Z,30.20
2019-03-11T09:28:04.458Z,30.20
2019-03-11T09:30:32.700Z,30.20
2019-03-11T09:33:00.969Z,30.20
2019-03-11T09:35:29.209Z,30.30
2019-03-11T09:37:57.474Z,30.30
2019-03-11T09:40:25.718Z,30.30
2019-03-11T09:42:53.985Z,30.40
2019-03-11T09:45:24.249Z,30.50
2019-03-11T09:47:52.213Z,30.40
2019-03-11T09:50:20.481Z,30.40
2019-03-11T09:52:48.974Z,30.50
2019-03-11T09:55:28.190Z,30.40
2019-03-11T09:57:56.466Z,30.50
2019-03-11T10:00:30.174Z,30.40
2019-03-11T10:02:58.418Z,30.40
2019-03-11T10:05:26.915Z,30.50
2019-03-11T10:07:55.541Z,30.50
2019-03-11T10:10:30.230Z,30.50
2019-03-11T10:12:58.493Z,30.50
2019-03-11T10:15:26.738Z,30.50
2019-03-11T10:17:55.001Z,30.50
2019-03-11T10:20:23.314Z,30.60
2019-03-11T10:22:51.589Z,30.60
2019-03-11T10:25:22.485Z,30.60
2019-03-11T10:27:50.830Z,30.60
2019-03-11T10:30:20.035Z,30.70
2019-03-11T10:32:48.285Z,30.80
2019-03-11T10:35:31.400Z,30.80
2019-03-11T10:37:47.237Z,30.80
2019-03-11T10:40:23.795Z,30.90
2019-03-11T10:42:52.042Z,30.90
2019-03-11T10:45:30.489Z,30.90
2019-03-11T10:47:50.271Z,30.80
2019-03-11T10:50:19.256Z,30.80
2019-03-11T10:52:47.758Z,30.80
2019-03-11T10:55:25.850Z,30.80
2019-03-11T10:57:54.118Z,30.80
2019-03-11T11:00:26.001Z,30.80
2019-03-11T11:02:54.341Z,30.80
2019-03-11T11:05:22.892Z,30.80
2019-03-11T11:07:51.188Z,30.90
2019-03-11T11:10:19.492Z,30.90
2019-03-11T11:12:47.768Z,30.90
2019-03-11T11:15:21.154Z,31.00
2019-03-11T11:17:49.423Z,31.00
2019-03-11T11:20:21.701Z,31.00
2019-03-11T11:22:50.031Z,30.90
2019-03-11T11:25:19.871Z,31.00
2019-03-11T11:27:48.136Z,31.00
2019-03-11T11:30:27.779Z,31.10
2019-03-11T11:32:56.045Z,31.10
2019-03-11T11:35:24.326Z,31.10
2019-03-11T11:37:52.602Z,31.20
2019-03-11T11:40:24.453Z,31.20
2019-03-11T11:42:52.967Z,31.10
2019-03-11T11:45:25.554Z,31.20
2019-03-11T11:47:53.822Z,31.10
2019-03-11T11:50:22.943Z,31.20
2019-03-11T11:52:51.499Z,31.20
2019-03-11T11:55:22.705Z,31.20
2019-03-11T11:57:51.215Z,31.30
2019-03-11T12:00:29.381Z,31.30
2019-03-11T12:02:57.673Z,31.20
2019-03-11T12:05:26.202Z,31.30
2019-03-11T12:07:54.461Z,31.40
2019-03-11T12:10:32.844Z,31.40
2019-03-11T12:13:01.107Z,31.50
2019-03-11T12:15:29.358Z,31.40
2019-03-11T12:17:57.857Z,31.40
2019-03-11T12:20:30.116Z,31.40
2019-03-11T12:22:58.618Z,31.40
2019-03-11T12:25:26.853Z,31.50
2019-03-11T12:27:57.816Z,31.50
2019-03-11T12:30:28.348Z,31.50
2019-03-11T12:32:56.632Z,31.60
2019-03-11T12:35:24.901Z,31.50
2019-03-11T12:37:53.400Z,31.70
2019-03-11T12:40:21.677Z,31.70
2019-03-11T12:42:49.925Z,31.80
2019-03-11T12:45:23.042Z,31.80
2019-03-11T12:47:51.331Z,31.90
2019-03-11T12:50:32.729Z,31.90
2019-03-11T12:53:01.040Z,31.80
2019-03-11T12:55:29.328Z,31.90
2019-03-11T12:57:57.556Z,31.90
2019-03-11T13:00:25.978Z,31.90
2019-03-11T13:02:54.315Z,32.00
2019-03-11T13:05:22.561Z,32.00
2019-03-11T13:07:50.824Z,31.90
2019-03-11T13:10:23.324Z,31.90
2019-03-11T13:12:51.664Z,31.90
2019-03-11T13:15:19.905Z,32.00
2019-03-11T13:17:48.153Z,32.00
2019-03-11T13:20:22.701Z,32.00
2019-03-11T13:22:51.790Z,32.00
2019-03-11T13:25:20.302Z,31.90
2019-03-11T13:27:48.560Z,31.90
2019-03-11T13:30:16.893Z,32.00
2019-03-11T13:32:45.170Z,32.00
2019-03-11T13:35:13.890Z,32.00
2019-03-11T13:37:42.137Z,32.10
2019-03-11T13:40:14.039Z,32.20
2019-03-11T13:42:42.287Z,32.20
2019-03-11T13:45:13.417Z,32.20
2019-03-11T13:47:41.663Z,32.30
2019-03-11T13:50:17.051Z,32.40
2019-03-11T13:52:45.297Z,32.50
2019-03-11T13:55:17.066Z,32.50
2019-03-11T13:57:45.333Z,32.60
2019-03-11T14:00:18.112Z,32.70
2019-03-11T14:02:46.434Z,32.70
2019-03-11T14:05:14.682Z,32.70
2019-03-11T14:07:43.210Z,32.80
2019-03-11T14:10:12.144Z,32.80
2019-03-11T14:12:40.457Z,32.90
2019-03-11T14:15:14.752Z,32.90
2019-03-11T14:17:43.022Z,32.90
2019-03-11T14:20:12.441Z,33.00
2019-03-11T14:22:40.967Z,33.00
2019-03-11T14:25:10.317Z,33.10
2019-03-11T14:27:38.578Z,33.10
2019-03-11T14:30:23.663Z,33.20
2019-03-11T14:32:51.914Z,33.20
2019-03-11T14:35:20.164Z,33.10
2019-03-11T14:37:48.468Z,31.60
2019-03-11T14:40:17.657Z,30.30
2019-03-11T14:42:45.968Z,29.80
2019-03-11T14:45:22.213Z,30.00
2019-03-11T14:47:50.545Z,29.70
2019-03-11T14:50:19.088Z,30.00
2019-03-11T14:52:47.355Z,30.10
2019-03-11T14:55:15.914Z,30.70
2019-03-11T14:57:44.185Z,30.40
2019-03-11T15:00:19.308Z,30.00
2019-03-11T15:02:47.571Z,29.60
2019-03-11T15:05:19.030Z,29.40
2019-03-11T15:07:47.419Z,29.60
2019-03-11T15:10:20.201Z,29.60
2019-03-11T15:12:48.696Z,29.60
2019-03-11T15:15:24.480Z,29.70
2019-03-11T15:17:52.747Z,29.80
2019-03-11T15:20:21.258Z,30.00
2019-03-11T15:22:49.577Z,30.10
2019-03-11T15:25:17.981Z,31.00
2019-03-11T15:27:46.230Z,33.00
2019-03-11T15:30:22.470Z,33.80
2019-03-11T15:32:50.730Z,34.10
2019-03-11T15:35:19.040Z,34.30
2019-03-11T15:37:47.560Z,34.40
2019-03-11T15:40:19.183Z,34.40
2019-03-11T15:42:47.512Z,34.30
2019-03-11T15:45:16.669Z,34.60
2019-03-11T15:47:44.968Z,34.70
2019-03-11T15:50:22.734Z,34.90
2019-03-11T15:52:50.997Z,34.70
2019-03-11T15:55:19.320Z,35.10
2019-03-11T15:57:47.601Z,35.40
2019-03-11T16:00:23.570Z,35.60
2019-03-11T16:02:52.058Z,36.00
2019-03-11T16:05:22.402Z,36.00
2019-03-11T16:07:50.705Z,35.50
2019-03-11T16:10:19.201Z,35.90
2019-03-11T16:12:47.444Z,36.40
2019-03-11T16:15:16.365Z,36.60
2019-03-11T16:17:44.617Z,37.70
2019-03-11T16:20:21.065Z,37.30
2019-03-11T16:22:49.566Z,37.40
2019-03-11T16:25:18.102Z,37.40
2019-03-11T16:27:46.355Z,37.60
2019-03-11T16:30:28.086Z,37.70
2019-03-11T16:32:59.781Z,38.40
2019-03-11T16:35:27.897Z,38.20
2019-03-11T16:37:56.177Z,38.30
2019-03-11T16:40:24.426Z,38.50
2019-03-11T16:42:52.678Z,39.10
2019-03-11T16:45:21.198Z,38.80
2019-03-11T16:47:49.449Z,38.80
2019-03-11T16:50:23.633Z,38.80
2019-03-11T16:52:51.894Z,38.80
2019-03-11T16:55:23.912Z,38.90
2019-03-11T16:57:53.612Z,38.90
2019-03-11T17:00:24.037Z,38.90
2019-03-11T17:02:52.282Z,38.90
2019-03-11T17:05:20.626Z,39.00
2019-03-11T17:07:48.874Z,39.00
2019-03-11T17:10:18.782Z,39.00
2019-03-11T17:12:47.129Z,39.10
2019-03-11T17:15:15.373Z,39.00
2019-03-11T17:17:43.633Z,39.00
2019-03-11T17:20:19.280Z,39.20
2019-03-11T17:22:47.534Z,39.10
2019-03-11T17:25:15.789Z,39.20
2019-03-11T17:27:44.053Z,39.30
2019-03-11T17:30:18.306Z,39.20
2019-03-11T17:32:46.569Z,39.30
2019-03-11T17:35:15.453Z,39.30
2019-03-11T17:37:44.115Z,39.30
2019-03-11T17:40:17.266Z,39.40
2019-03-11T17:42:45.643Z,39.40
2019-03-11T17:45:14.688Z,39.40
2019-03-11T17:47:42.954Z,39.40
2019-03-11T17:50:16.810Z,39.50
2019-03-11T17:52:45.145Z,39.50
2019-03-11T17:55:14.034Z,39.50
2019-03-11T17:57:42.546Z,39.50
2019-03-11T18:00:15.425Z,39.50
2019-03-11T18:02:43.948Z,39.50
2019-03-11T18:05:12.214Z,39.60
2019-03-11T18:07:40.738Z,39.70
2019-03-11T18:10:09.165Z,39.80
2019-03-11T18:12:37.405Z,39.70
2019-03-11T18:15:07.854Z,39.80
2019-03-11T18:17:36.103Z,39.90
2019-03-11T18:20:07.809Z,39.90
2019-03-11T18:22:36.061Z,39.90
2019-03-11T18:25:05.213Z,40.00
2019-03-11T18:27:33.483Z,40.00
2019-03-11T18:30:01.748Z,40.10
2019-03-11T18:32:30.013Z,40.10
2019-03-11T18:34:58.282Z,40.20
2019-03-11T18:37:26.770Z,40.20
2019-03-11T18:39:55.373Z,40.30
2019-03-11T18:42:26.197Z,40.30
2019-03-11T18:44:53.607Z,40.30
2019-03-11T18:47:21.920Z,40.40
2019-03-11T18:49:50.691Z,40.40
2019-03-11T18:52:19.034Z,40.50
2019-03-11T18:54:47.277Z,40.50
2019-03-11T18:57:15.870Z,40.50
2019-03-11T18:59:44.367Z,40.60
2019-03-11T19:02:12.892Z,40.60
2019-03-11T19:04:41.223Z,40.60
2019-03-11T19:07:09.542Z,40.60
2019-03-11T19:09:37.842Z,40.80
2019-03-11T19:12:06.174Z,40.70
2019-03-11T19:14:34.731Z,40.80
2019-03-11T19:17:02.972Z,40.80
2019-03-11T19:19:31.234Z,40.80
2019-03-11T19:21:59.518Z,40.80
2019-03-11T19:24:27.865Z,40.90
2019-03-11T19:26:56.191Z,40.90
2019-03-11T19:29:24.517Z,41.00
2019-03-11T19:31:52.814Z,41.00
2019-03-11T19:34:21.099Z,41.00
2019-03-11T19:36:49.447Z,41.10
2019-03-11T19:39:18.010Z,41.70
2019-03-11T19:41:46.279Z,41.00
2019-03-11T19:44:14.541Z,41.70
2019-03-11T19:46:43.149Z,41.10
2019-03-11T19:49:11.448Z,41.00
2019-03-11T19:51:39.913Z,41.10
2019-03-11T19:54:08.226Z,41.10
2019-03-11T19:56:36.562Z,41.20
2019-03-11T19:59:04.806Z,41.20
2019-03-11T20:01:33.073Z,41.20
2019-03-11T20:04:01.359Z,41.20
2019-03-11T20:06:29.677Z,41.20
2019-03-11T20:08:57.959Z,41.20
2019-03-11T20:11:26.281Z,41.20
2019-03-11T20:13:54.590Z,41.30
2019-03-11T20:16:22.881Z,41.30
2019-03-11T20:18:51.177Z,41.30
2019-03-11T20:21:19.464Z,41.30
2019-03-11T20:23:47.811Z,41.40
2019-03-11T20:26:18.561Z,41.50
2019-03-11T20:28:46.347Z,41.50
2019-03-11T20:31:14.610Z,41.60
2019-03-11T20:33:42.968Z,41.70
2019-03-11T20:36:20.271Z,41.80
2019-03-11T20:38:42.872Z,41.90
2019-03-11T20:41:11.438Z,42.00
2019-03-11T20:43:39.727Z,42.10
2019-03-11T20:46:07.971Z,42.30
2019-03-11T20:48:36.302Z,42.40
2019-03-11T20:51:04.610Z,42.50
2019-03-11T20:53:32.947Z,42.60
2019-03-11T20:56:01.283Z,42.70
2019-03-11T20:58:29.597Z,42.70
2019-03-11T21:00:58.222Z,42.80
2019-03-11T21:03:26.678Z,42.90
2019-03-11T21:06:01.053Z,43.00
2019-03-11T21:08:29.357Z,43.00
2019-03-11T21:10:57.595Z,43.00
2019-03-11T21:13:26.130Z,43.10
2019-03-11T21:15:54.434Z,43.00
2019-03-11T21:18:23.026Z,43.00
2019-03-11T21:21:03.760Z,42.90
2019-03-11T21:23:21.605Z,42.90
2019-03-11T21:25:50.166Z,42.80
2019-03-11T21:28:18.670Z,42.80
2019-03-11T21:30:47.138Z,42.70
2019-03-11T21:33:15.459Z,42.70
2019-03-11T21:35:43.798Z,42.60
2019-03-11T21:38:12.385Z,42.50
2019-03-11T21:40:40.690Z,42.30
2019-03-11T21:43:09.040Z,42.20
2019-03-11T21:45:37.352Z,42.10
2019-03-11T21:48:05.874Z,41.90
2019-03-11T21:50:34.250Z,41.80
2019-03-11T21:53:02.840Z,41.70
2019-03-11T21:55:31.117Z,41.60
2019-03-11T21:58:12.194Z,41.40
2019-03-11T22:00:34.260Z,41.30
2019-03-11T22:02:59.351Z,41.80
2019-03-11T22:05:27.605Z,41.00
2019-03-11T22:07:55.870Z,41.00
2019-03-11T22:10:24.129Z,40.90
2019-03-11T22:12:52.481Z,40.70
2019-03-11T22:15:24.708Z,40.50
2019-03-11T22:17:52.982Z,40.40
2019-03-11T22:20:21.218Z,40.30
2019-03-11T22:22:49.461Z,40.20
2019-03-11T22:25:21.141Z,40.00
2019-03-11T22:27:49.543Z,39.90
2019-03-11T22:30:21.419Z,39.80
2019-03-11T22:32:49.924Z,39.60
2019-03-11T22:35:18.168Z,39.50
2019-03-11T22:37:46.537Z,39.20
2019-03-11T22:40:16.041Z,39.10
2019-03-11T22:42:44.340Z,38.90
2019-03-11T22:45:16.651Z,38.80
2019-03-11T22:47:44.298Z,38.60
2019-03-11T22:50:12.806Z,38.40
2019-03-11T22:52:41.318Z,38.30
2019-03-11T22:55:10.249Z,38.20
2019-03-11T22:57:38.504Z,37.90
2019-03-11T23:00:29.949Z,37.90
2019-03-11T23:02:58.186Z,37.70
2019-03-11T23:05:26.452Z,37.50
2019-03-11T23:07:54.723Z,37.30
2019-03-11T23:10:22.965Z,37.30
2019-03-11T23:12:51.475Z,37.00
2019-03-11T23:15:19.735Z,36.90
2019-03-11T23:17:47.982Z,36.70
2019-03-11T23:20:16.489Z,36.60
2019-03-11T23:22:44.738Z,36.40
2019-03-11T23:25:13.237Z,36.30
2019-03-11T23:27:41.726Z,36.10
2019-03-11T23:30:14.582Z,36.00
2019-03-11T23:32:42.850Z,35.80
2019-03-11T23:35:11.099Z,35.60
2019-03-11T23:37:39.373Z,35.50
2019-03-11T23:40:10.299Z,35.30
2019-03-11T23:42:38.575Z,35.10
2019-03-11T23:45:10.634Z,35.00
2019-03-11T23:47:38.888Z,34.90
2019-03-11T23:50:13.054Z,34.70
2019-03-11T23:52:41.317Z,34.60
2019-03-11T23:55:10.409Z,34.50
2019-03-11T23:57:38.686Z,34.40
